createdAt,value
2019-02-05T00:01:37.282Z,19.67
2019-02-05T00:04:05.646Z,10.70
2019-02-05T00:06:33.325Z,11.07
2019-02-05T00:09:01.474Z,11.80
2019-02-05T00:11:29.386Z,8.87
2019-02-05T00:13:56.942Z,16.20
2019-02-05T00:16:24.800Z,10.10
2019-02-05T00:18:52.632Z,18.17
2019-02-05T00:21:21.266Z,10.53
2019-02-05T00:23:49.353Z,13.33
2019-02-05T00:26:18.244Z,14.83
2019-02-05T00:28:46.242Z,11.57
2019-02-05T00:31:14.514Z,13.83
2019-02-05T00:33:42.567Z,18.97
2019-02-05T00:36:10.749Z,8.77
2019-02-05T00:38:38.774Z,11.00
2019-02-05T00:41:06.722Z,17.40
2019-02-05T00:43:34.960Z,11.47
2019-02-05T00:46:02.915Z,12.13
2019-02-05T00:48:31.363Z,10.50
2019-02-05T00:50:59.513Z,12.23
2019-02-05T00:53:27.439Z,10.53
2019-02-05T00:55:56.497Z,12.40
2019-02-05T00:58:24.938Z,10.53
2019-02-05T01:00:53.249Z,10.07
2019-02-05T01:03:22.448Z,8.83
2019-02-05T01:05:50.827Z,11.30
2019-02-05T01:08:18.907Z,15.97
2019-02-05T01:10:48.090Z,9.97
2019-02-05T01:13:16.217Z,9.40
2019-02-05T01:15:44.268Z,9.27
2019-02-05T01:18:12.736Z,9.87
2019-02-05T01:20:40.899Z,9.77
2019-02-05T01:23:09.019Z,7.80
2019-02-05T01:25:37.273Z,8.77
2019-02-05T01:28:05.258Z,9.93
2019-02-05T01:30:32.756Z,10.50
2019-02-05T01:33:00.738Z,7.73
2019-02-05T01:35:28.598Z,10.97
2019-02-05T01:37:56.604Z,8.40
2019-02-05T01:40:25.621Z,13.47
2019-02-05T01:42:54.170Z,8.37
2019-02-05T01:45:22.778Z,10.13
2019-02-05T01:47:50.785Z,12.93
2019-02-05T01:50:24.001Z,9.17
2019-02-05T01:52:51.625Z,8.17
2019-02-05T01:55:21.018Z,9.57
2019-02-05T01:57:49.234Z,12.33
2019-02-05T02:00:24.685Z,7.43
2019-02-05T02:02:52.507Z,8.93
2019-02-05T02:05:20.553Z,8.97
2019-02-05T02:07:48.548Z,6.77
2019-02-05T02:10:19.163Z,9.57
2019-02-05T02:12:47.292Z,10.83
2019-02-05T02:15:15.135Z,10.73
2019-02-05T02:17:43.278Z,10.97
2019-02-05T02:20:13.403Z,9.03
2019-02-05T02:22:41.257Z,10.10
2019-02-05T02:25:09.162Z,12.10
2019-02-05T02:27:38.322Z,9.93
2019-02-05T02:30:11.162Z,11.37
2019-02-05T02:32:39.664Z,8.93
2019-02-05T02:35:07.958Z,12.47
2019-02-05T02:37:36.162Z,11.83
2019-02-05T02:40:05.053Z,8.67
2019-02-05T02:42:32.753Z,9.93
2019-02-05T02:45:04.438Z,8.77
2019-02-05T02:47:32.523Z,9.20
2019-02-05T02:50:00.602Z,10.00
2019-02-05T02:52:28.890Z,8.77
2019-02-05T02:54:58.096Z,6.53
2019-02-05T02:57:29.476Z,9.43
2019-02-05T02:59:57.849Z,7.40
2019-02-05T03:02:34.911Z,9.87
2019-02-05T03:05:07.220Z,13.40
2019-02-05T03:07:35.082Z,8.20
2019-02-05T03:10:04.920Z,8.20
2019-02-05T03:17:43.858Z,12.57
2019-02-05T03:20:12.891Z,7.90
2019-02-05T03:22:41.105Z,8.47
2019-02-05T03:25:11.100Z,9.33
2019-02-05T03:27:39.521Z,7.30
2019-02-05T03:30:10.534Z,10.07
2019-02-05T03:32:38.303Z,7.33
2019-02-05T03:35:06.723Z,7.60
2019-02-05T03:37:34.475Z,7.00
2019-02-05T03:40:02.473Z,7.73
2019-02-05T03:42:31.431Z,10.27
2019-02-05T03:45:02.572Z,9.17
2019-02-05T03:47:30.245Z,6.97
2019-02-05T03:50:00.440Z,8.40
2019-02-05T03:52:39.607Z,7.20
2019-02-05T03:55:34.572Z,8.50
2019-02-05T03:58:39.315Z,9.87
2019-02-05T04:01:37.386Z,8.30
2019-02-05T04:05:02.237Z,10.10
2019-02-05T04:07:56.122Z,10.33
2019-02-05T04:11:10.447Z,8.33
2019-02-05T04:14:16.692Z,8.27
2019-02-05T04:17:11.362Z,7.70
2019-02-05T04:20:34.476Z,10.90
2019-02-05T04:23:32.623Z,8.53
2019-02-05T04:26:45.406Z,10.03
2019-02-05T04:29:37.656Z,8.37
2019-02-05T04:32:13.816Z,8.97
2019-02-05T04:35:17.779Z,9.83
2019-02-05T04:38:28.561Z,10.87
2019-02-05T04:41:48.290Z,9.10
2019-02-05T04:44:38.713Z,10.00
2019-02-05T04:48:06.230Z,11.03
2019-02-05T04:50:52.753Z,10.10
2019-02-05T04:53:45.486Z,7.93
2019-02-05T04:56:55.242Z,8.63
2019-02-05T05:00:13.829Z,10.90
2019-02-05T05:03:15.042Z,10.53
2019-02-05T05:06:20.114Z,11.30
2019-02-05T05:09:13.294Z,9.33
2019-02-05T05:11:41.346Z,10.30
2019-02-05T05:14:08.796Z,9.53
2019-02-05T05:16:36.672Z,9.73
2019-02-05T05:19:04.696Z,12.27
2019-02-05T05:21:32.441Z,11.93
2019-02-05T05:24:00.468Z,9.30
2019-02-05T05:26:28.693Z,11.87
2019-02-05T05:28:56.211Z,10.43
2019-02-05T05:31:23.906Z,9.23
2019-02-05T05:33:51.846Z,9.63
2019-02-05T05:36:19.985Z,13.67
2019-02-05T05:38:47.401Z,9.73
2019-02-05T05:41:15.553Z,9.90
2019-02-05T05:43:43.303Z,8.43
2019-02-05T05:46:10.756Z,12.53
2019-02-05T05:48:38.844Z,9.20
2019-02-05T05:51:06.520Z,11.23
2019-02-05T05:53:34.327Z,11.90
2019-02-05T05:56:01.994Z,11.33
2019-02-05T05:58:29.491Z,11.87
2019-02-05T06:00:57.131Z,10.20
2019-02-05T06:03:24.920Z,13.30
2019-02-05T06:05:52.430Z,13.13
2019-02-05T06:08:19.978Z,13.07
2019-02-05T06:10:47.563Z,9.27
2019-02-05T06:13:15.457Z,15.57
2019-02-05T06:15:43.009Z,11.17
2019-02-05T06:18:10.756Z,12.03
2019-02-05T06:20:38.258Z,11.27
2019-02-05T06:23:05.730Z,12.23
2019-02-05T06:25:33.245Z,13.63
2019-02-05T06:28:01.261Z,11.53
2019-02-05T06:30:28.771Z,13.07
2019-02-05T06:32:56.609Z,17.17
2019-02-05T06:35:24.153Z,13.07
2019-02-05T06:37:52.205Z,14.00
2019-02-05T06:40:20.599Z,15.17
2019-02-05T06:42:48.081Z,13.33
2019-02-05T06:45:15.881Z,13.30
2019-02-05T06:47:43.647Z,14.30
2019-02-05T06:50:11.346Z,14.83
2019-02-05T06:52:40.401Z,18.73
2019-02-05T06:55:09.091Z,16.67
2019-02-05T06:57:36.773Z,14.80
2019-02-05T07:00:07.139Z,16.93
2019-02-05T07:02:34.647Z,15.80
2019-02-05T07:05:02.393Z,16.30
2019-02-05T07:07:29.975Z,16.77
2019-02-05T07:09:57.867Z,13.57
2019-02-05T07:12:25.817Z,15.73
2019-02-05T07:14:53.401Z,15.13
2019-02-05T07:17:21.016Z,15.23
2019-02-05T07:19:49.200Z,15.23
2019-02-05T07:22:16.698Z,13.73
2019-02-05T07:24:44.621Z,19.90
2019-02-05T07:27:12.258Z,13.63
2019-02-05T07:29:39.765Z,13.53
2019-02-05T07:32:07.841Z,16.00
2019-02-05T07:34:36.010Z,17.50
2019-02-05T07:37:03.913Z,18.90
2019-02-05T07:39:31.575Z,20.27
2019-02-05T07:41:59.161Z,15.33
2019-02-05T07:44:26.742Z,14.83
2019-02-05T07:46:54.645Z,17.07
2019-02-05T07:49:22.531Z,16.40
2019-02-05T07:51:50.180Z,18.23
2019-02-05T07:54:17.877Z,15.87
2019-02-05T07:56:47.868Z,15.13
2019-02-05T07:59:15.838Z,18.73
2019-02-05T08:01:43.765Z,17.13
2019-02-05T08:04:11.761Z,18.13
2019-02-05T08:06:39.936Z,15.03
2019-02-05T08:09:09.707Z,14.10
2019-02-05T08:11:37.615Z,17.37
2019-02-05T08:14:06.186Z,19.90
2019-02-05T08:16:34.093Z,16.10
2019-02-05T08:19:02.123Z,21.80
2019-02-05T08:21:29.758Z,19.17
2019-02-05T08:23:57.847Z,16.17
2019-02-05T08:26:25.915Z,18.07
2019-02-05T08:28:53.530Z,19.20
2019-02-05T08:31:21.246Z,17.27
2019-02-05T08:33:49.138Z,17.30
2019-02-05T08:36:16.786Z,16.57
2019-02-05T08:38:44.406Z,15.30
2019-02-05T08:41:12.402Z,17.43
2019-02-05T08:43:39.992Z,15.13
2019-02-05T08:46:07.634Z,18.73
2019-02-05T08:48:35.556Z,19.33
2019-02-05T08:51:03.262Z,17.67
2019-02-05T08:53:31.031Z,17.73
2019-02-05T08:55:59.039Z,19.53
2019-02-05T08:58:31.020Z,17.77
2019-02-05T09:00:56.013Z,16.63
2019-02-05T09:03:23.592Z,17.23
2019-02-05T09:05:51.527Z,16.20
2019-02-05T09:08:19.245Z,15.60
2019-02-05T09:10:46.987Z,16.37
2019-02-05T09:13:15.014Z,16.03
2019-02-05T09:15:42.605Z,16.77
2019-02-05T09:18:10.449Z,22.43
2019-02-05T09:20:38.189Z,19.47
2019-02-05T09:23:05.901Z,18.50
2019-02-05T09:25:34.373Z,17.63
2019-02-05T09:28:02.031Z,20.27
2019-02-05T09:30:31.267Z,15.87
2019-02-05T09:33:00.714Z,17.17
2019-02-05T09:35:28.569Z,17.27
2019-02-05T09:37:57.910Z,19.97
2019-02-05T09:40:27.856Z,25.23
2019-02-05T09:42:55.356Z,19.67
2019-02-05T09:45:23.503Z,22.10
2019-02-05T09:47:51.703Z,18.83
2019-02-05T09:50:20.124Z,17.00
2019-02-05T09:52:47.650Z,17.60
2019-02-05T09:55:15.934Z,15.87
2019-02-05T09:57:44.192Z,20.33
2019-02-05T10:00:26.845Z,18.00
2019-02-05T10:02:55.013Z,16.67
2019-02-05T10:05:23.429Z,16.60
2019-02-05T10:07:51.023Z,17.70
2019-02-05T10:10:19.537Z,20.67
2019-02-05T10:12:47.555Z,19.67
2019-02-05T10:15:26.969Z,22.87
2019-02-05T10:17:54.811Z,19.77
2019-02-05T10:20:32.357Z,18.43
2019-02-05T10:23:02.475Z,20.90
2019-02-05T10:25:31.372Z,19.23
2019-02-05T10:27:59.703Z,20.67
2019-02-05T10:30:32.321Z,22.57
2019-02-05T10:33:01.692Z,18.50
2019-02-05T10:35:29.655Z,25.23
2019-02-05T10:37:57.803Z,19.37
2019-02-05T10:40:27.865Z,19.80
2019-02-05T10:42:57.903Z,20.33
2019-02-05T10:45:29.081Z,20.87
2019-02-05T10:47:56.677Z,19.60
2019-02-05T10:50:24.425Z,19.67
2019-02-05T10:52:52.044Z,22.07
2019-02-05T10:55:19.942Z,20.70
2019-02-05T10:57:47.757Z,18.40
2019-02-05T11:00:20.315Z,18.53
2019-02-05T11:02:48.474Z,21.27
2019-02-05T11:05:18.941Z,20.77
2019-02-05T11:07:47.195Z,16.90
2019-02-05T11:10:15.772Z,26.27
2019-02-05T11:12:43.544Z,19.87
2019-02-05T11:15:13.715Z,18.43
2019-02-05T11:17:41.619Z,17.93
2019-02-05T11:20:12.763Z,19.60
2019-02-05T11:22:40.741Z,21.07
2019-02-05T11:25:10.156Z,19.77
2019-02-05T11:27:38.044Z,20.67
2019-02-05T11:30:19.657Z,20.50
2019-02-05T11:32:38.327Z,19.57
2019-02-05T11:35:06.497Z,20.90
2019-02-05T11:37:34.111Z,20.63
2019-02-05T11:40:02.181Z,21.07
2019-02-05T11:42:30.194Z,22.20
2019-02-05T11:44:58.267Z,20.90
2019-02-05T11:47:26.656Z,23.83
2019-02-05T11:49:54.620Z,24.13
2019-02-05T11:52:22.456Z,20.37
2019-02-05T11:54:50.328Z,26.43
2019-02-05T11:57:18.399Z,22.50
2019-02-05T11:59:56.276Z,24.07
2019-02-05T12:02:23.922Z,22.37
2019-02-05T12:04:52.341Z,22.47
2019-02-05T12:07:20.494Z,22.23
2019-02-05T12:09:49.880Z,22.67
2019-02-05T12:12:24.521Z,22.07
2019-02-05T12:14:54.410Z,24.10
2019-02-05T12:17:23.517Z,20.97
2019-02-05T12:19:56.397Z,20.40
2019-02-05T12:22:29.813Z,23.27
2019-02-05T12:25:20.050Z,20.93
2019-02-05T12:28:18.894Z,23.30
2019-02-05T12:31:05.882Z,20.07
2019-02-05T12:33:37.548Z,24.30
2019-02-05T12:36:08.963Z,24.20
2019-02-05T12:38:44.054Z,23.33
2019-02-05T12:41:15.813Z,28.03
2019-02-05T12:43:47.881Z,25.40
2019-02-05T12:46:18.922Z,26.50
2019-02-05T12:49:26.555Z,30.40
2019-02-05T12:51:59.324Z,29.03
2019-02-05T12:54:48.767Z,27.37
2019-02-05T12:57:25.747Z,23.17
2019-02-05T12:59:55.495Z,24.60
2019-02-05T13:02:33.088Z,21.90
2019-02-05T13:05:00.674Z,24.17
2019-02-05T13:07:28.479Z,28.47
2019-02-05T13:10:01.221Z,21.27
2019-02-05T13:12:29.542Z,25.57
2019-02-05T13:14:57.685Z,28.70
2019-02-05T13:17:25.268Z,23.97
2019-02-05T13:19:52.934Z,31.57
2019-02-05T13:22:24.745Z,26.37
2019-02-05T13:24:52.604Z,22.80
2019-02-05T13:27:20.290Z,24.13
2019-02-05T13:29:48.270Z,22.83
2019-02-05T13:32:15.842Z,25.00
2019-02-05T13:34:43.467Z,24.40
2019-02-05T13:37:13.205Z,24.37
2019-02-05T13:39:41.277Z,25.37
2019-02-05T13:42:09.253Z,25.10
2019-02-05T13:44:36.773Z,29.10
2019-02-05T13:47:04.613Z,22.47
2019-02-05T13:49:32.313Z,25.23
2019-02-05T13:52:00.107Z,19.93
2019-02-05T13:54:27.864Z,24.57
2019-02-05T13:56:55.789Z,21.03
2019-02-05T13:59:23.669Z,24.67
2019-02-05T14:01:51.420Z,29.53
2019-02-05T14:04:19.084Z,18.07
2019-02-05T14:06:46.645Z,21.23
2019-02-05T14:09:14.580Z,20.07
2019-02-05T14:11:42.106Z,23.87
2019-02-05T14:14:10.017Z,18.33
2019-02-05T14:16:37.664Z,26.37
2019-02-05T14:19:05.482Z,21.60
2019-02-05T14:21:33.360Z,25.53
2019-02-05T14:24:00.866Z,19.07
2019-02-05T14:26:28.657Z,19.50
2019-02-05T14:28:56.220Z,21.43
2019-02-05T14:31:31.026Z,24.13
2019-02-05T14:33:53.470Z,20.07
2019-02-05T14:36:21.024Z,27.70
2019-02-05T14:38:48.817Z,21.83
2019-02-05T14:41:16.305Z,19.43
2019-02-05T14:43:43.935Z,22.30
2019-02-05T14:46:13.205Z,22.40
2019-02-05T14:48:40.855Z,23.03
2019-02-05T14:51:08.485Z,25.37
2019-02-05T14:53:36.562Z,29.23
2019-02-05T14:56:04.390Z,22.80
2019-02-05T14:58:31.914Z,22.60
2019-02-05T15:00:59.853Z,24.87
2019-02-05T15:03:27.817Z,26.00
2019-02-05T15:05:55.403Z,20.23
2019-02-05T15:08:23.527Z,22.67
2019-02-05T15:10:51.263Z,24.90
2019-02-05T15:13:18.961Z,23.73
2019-02-05T15:15:47.816Z,20.63
2019-02-05T15:18:17.507Z,21.07
2019-02-05T15:20:46.723Z,21.00
2019-02-05T15:23:14.637Z,39.40
2019-02-05T15:25:43.004Z,25.87
2019-02-05T15:28:10.880Z,25.67
2019-02-05T15:30:39.992Z,22.10
2019-02-05T15:33:23.542Z,25.40
2019-02-05T15:35:55.236Z,22.73
2019-02-05T15:38:23.404Z,20.00
2019-02-05T15:40:51.485Z,20.93
2019-02-05T15:43:19.183Z,23.83
2019-02-05T15:45:46.637Z,22.47
2019-02-05T15:48:14.189Z,23.90
2019-02-05T15:50:42.077Z,28.17
2019-02-05T15:53:09.548Z,30.90
2019-02-05T15:55:37.270Z,28.30
2019-02-05T15:58:04.968Z,24.53
2019-02-05T16:00:34.793Z,23.97
2019-02-05T16:03:02.792Z,27.60
2019-02-05T16:05:30.718Z,24.70
2019-02-05T16:07:58.558Z,27.50
2019-02-05T16:10:26.573Z,31.07
2019-02-05T16:12:54.974Z,28.47
2019-02-05T16:15:23.034Z,27.50
2019-02-05T16:17:50.856Z,21.07
2019-02-05T16:20:18.701Z,26.40
2019-02-05T16:22:46.473Z,25.80
2019-02-05T16:25:15.791Z,24.07
2019-02-05T16:27:43.474Z,20.23
2019-02-05T16:30:14.632Z,19.67
2019-02-05T16:32:42.230Z,20.17
2019-02-05T16:35:10.382Z,22.67
2019-02-05T16:37:38.171Z,23.07
2019-02-05T16:40:14.499Z,28.97
2019-02-05T16:42:42.106Z,29.87
2019-02-05T16:45:12.726Z,25.23
2019-02-05T16:47:40.266Z,22.67
2019-02-05T16:50:20.604Z,24.00
2019-02-05T16:52:49.333Z,23.40
2019-02-05T16:55:18.570Z,24.73
2019-02-05T16:57:46.763Z,25.03
2019-02-05T17:00:20.183Z,24.60
2019-02-05T17:02:47.771Z,25.60
2019-02-05T17:05:16.470Z,31.03
2019-02-05T17:07:44.681Z,25.13
2019-02-05T17:10:13.548Z,24.70
2019-02-05T17:12:41.406Z,25.93
2019-02-05T17:15:10.622Z,23.70
2019-02-05T17:17:38.172Z,29.03
2019-02-05T17:20:08.088Z,24.70
2019-02-05T17:22:35.962Z,24.47
2019-02-05T17:25:05.386Z,29.83
2019-02-05T17:27:33.889Z,25.93
2019-02-05T17:30:01.676Z,27.10
2019-02-05T17:32:39.947Z,25.63
2019-02-05T17:35:04.580Z,24.87
2019-02-05T17:37:32.934Z,26.90
2019-02-05T17:40:03.526Z,28.13
2019-02-05T17:42:31.622Z,27.40
2019-02-05T17:44:59.961Z,25.67
2019-02-05T17:47:27.957Z,26.33
2019-02-05T17:49:56.132Z,26.60
2019-02-05T17:52:24.161Z,27.87
2019-02-05T17:54:58.820Z,25.73
2019-02-05T17:57:29.587Z,28.87
2019-02-05T18:00:02.133Z,28.10
2019-02-05T18:02:31.924Z,27.67
2019-02-05T18:05:11.498Z,27.00
2019-02-05T18:07:45.259Z,28.47
2019-02-05T18:10:20.804Z,30.57
2019-02-05T18:12:58.819Z,28.33
2019-02-05T18:15:34.837Z,25.23
2019-02-05T18:18:02.613Z,26.80
2019-02-05T18:20:30.318Z,29.93
2019-02-05T18:23:06.137Z,29.27
2019-02-05T18:25:34.926Z,27.97
2019-02-05T18:28:02.647Z,31.27
2019-02-05T18:30:31.868Z,28.23
2019-02-05T18:33:03.954Z,31.47
2019-02-05T18:35:31.908Z,29.30
2019-02-05T18:38:00.198Z,29.90
2019-02-05T18:40:39.647Z,30.43
2019-02-05T18:43:07.835Z,29.77
2019-02-05T18:45:41.674Z,33.77
2019-02-05T18:48:09.892Z,28.70
2019-02-05T18:50:41.038Z,33.23
2019-02-05T18:53:11.563Z,31.60
2019-02-05T18:55:38.839Z,30.63
2019-02-05T18:58:09.323Z,31.80
2019-02-05T19:00:40.190Z,34.50
2019-02-05T19:03:15.610Z,32.00
2019-02-05T19:05:39.603Z,34.60
2019-02-05T19:08:08.811Z,30.93
2019-02-05T19:10:36.657Z,34.13
2019-02-05T19:13:04.760Z,31.60
2019-02-05T19:15:34.270Z,32.40
2019-02-05T19:18:02.848Z,32.47
2019-02-05T19:20:32.157Z,33.40
2019-02-05T19:23:00.357Z,32.47
2019-02-05T19:25:40.483Z,34.97
2019-02-05T19:28:09.168Z,32.60
2019-02-05T19:30:38.347Z,31.60
2019-02-05T19:33:11.055Z,41.93
2019-02-05T19:35:39.863Z,34.50
2019-02-05T19:38:14.567Z,39.63
2019-02-05T19:40:42.813Z,35.73
2019-02-05T19:43:11.053Z,35.43
2019-02-05T19:45:52.634Z,35.27
2019-02-05T19:48:29.836Z,36.30
2019-02-05T19:50:58.648Z,37.57
2019-02-05T19:53:27.549Z,37.20
2019-02-05T19:55:56.498Z,37.33
2019-02-05T19:58:27.267Z,36.20
2019-02-05T20:00:56.154Z,33.53
2019-02-05T20:03:24.410Z,35.37
2019-02-05T20:05:52.947Z,34.37
2019-02-05T20:08:26.897Z,34.63
2019-02-05T20:11:04.096Z,33.67
2019-02-05T20:13:40.674Z,33.37
2019-02-05T20:16:12.417Z,38.40
2019-02-05T20:18:40.050Z,36.70
2019-02-05T20:21:07.981Z,32.60
2019-02-05T20:23:40.337Z,34.13
2019-02-05T20:26:13.236Z,34.23
2019-02-05T20:28:45.077Z,37.17
2019-02-05T20:31:23.710Z,33.40
2019-02-05T20:33:51.877Z,36.80
2019-02-05T20:36:19.892Z,40.63
2019-02-05T20:38:50.105Z,37.97
2019-02-05T20:41:18.157Z,37.40
2019-02-05T20:43:49.934Z,37.23
2019-02-05T20:46:23.818Z,34.13
2019-02-05T20:48:52.063Z,38.13
2019-02-05T20:51:22.690Z,33.30
2019-02-05T20:53:53.304Z,35.37
2019-02-05T20:56:21.263Z,40.07
2019-02-05T20:58:51.874Z,36.47
2019-02-05T21:01:21.945Z,41.57
2019-02-05T21:04:00.756Z,36.17
2019-02-05T21:06:20.055Z,37.67
2019-02-05T21:08:55.910Z,38.43
2019-02-05T21:11:28.605Z,37.37
2019-02-05T21:13:56.945Z,37.37
2019-02-05T21:16:25.668Z,38.30
2019-02-05T21:18:56.860Z,41.80
2019-02-05T21:21:24.512Z,37.33
2019-02-05T21:23:56.618Z,41.27
2019-02-05T21:26:25.283Z,36.60
2019-02-05T21:28:58.042Z,37.47
2019-02-05T21:31:25.934Z,38.43
2019-02-05T21:33:53.731Z,37.17
2019-02-05T21:36:22.962Z,38.73
2019-02-05T21:38:51.964Z,41.97
2019-02-05T21:41:20.377Z,38.00
2019-02-05T21:43:49.635Z,40.93
2019-02-05T21:46:17.834Z,37.73
2019-02-05T21:48:45.502Z,40.10
2019-02-05T21:51:16.679Z,41.00
2019-02-05T21:53:46.717Z,38.47
2019-02-05T21:56:14.865Z,38.33
2019-02-05T21:58:43.171Z,41.10
2019-02-05T22:01:14.283Z,39.40
2019-02-05T22:03:47.497Z,43.37
2019-02-05T22:06:16.647Z,40.90
2019-02-05T22:08:44.858Z,48.40
2019-02-05T22:11:23.429Z,39.60
2019-02-05T22:13:52.727Z,39.30
2019-02-05T22:16:35.991Z,37.50
2019-02-05T22:19:10.344Z,35.77
2019-02-05T22:21:49.882Z,39.37
2019-02-05T22:24:28.461Z,40.53
2019-02-05T22:26:58.080Z,47.30
2019-02-05T22:29:26.349Z,38.10
2019-02-05T22:32:06.050Z,48.00
2019-02-05T22:34:39.342Z,50.90
2019-02-05T22:37:04.648Z,39.73
2019-02-05T22:39:36.008Z,39.23
2019-02-05T22:42:05.167Z,44.70
2019-02-05T22:44:32.738Z,42.00
2019-02-05T22:47:00.608Z,40.17
2019-02-05T22:49:28.217Z,37.60
2019-02-05T22:51:56.724Z,41.67
2019-02-05T22:54:24.322Z,41.73
2019-02-05T22:56:53.421Z,48.60
2019-02-05T22:59:21.594Z,39.67
2019-02-05T23:01:54.732Z,42.17
2019-02-05T23:05:09.958Z,45.27
2019-02-05T23:07:37.424Z,39.47
2019-02-05T23:11:03.208Z,40.77
2019-02-05T23:13:22.099Z,38.23
2019-02-05T23:15:56.501Z,41.13
2019-02-05T23:18:24.579Z,40.03
2019-02-05T23:20:54.050Z,51.37
2019-02-05T23:23:21.427Z,45.07
2019-02-05T23:25:48.930Z,44.77
2019-02-05T23:28:16.433Z,43.13
2019-02-05T23:30:44.169Z,44.03
2019-02-05T23:33:12.447Z,37.97
2019-02-05T23:35:39.894Z,44.10
2019-02-05T23:38:07.458Z,46.97
2019-02-05T23:40:34.945Z,55.70
2019-02-05T23:43:02.547Z,41.27
2019-02-05T23:45:30.384Z,54.60
2019-02-05T23:47:58.149Z,41.23
2019-02-05T23:50:26.005Z,39.67
2019-02-05T23:52:53.525Z,41.13
2019-02-05T23:55:21.072Z,40.97
2019-02-05T23:57:48.793Z,41.40
